Time;durP1;ratioP1;P1;durP2;ratioP2;P2;SDS_P1;SDS_P2;PMS_P1;PMS_P2;Temp;Humidity;BMP_temperature;BMP_pressure;BME280_temperature;BME280_humidity;BME280_pressure;Samples;Min_cycle;Max_cycle;Signal;HPM_P1;HPM_P2
2022/11/03 00:02:04;;;;;;;10.43;3.08;;;11.70;99.90;;;;;;4768736;29;20061;-81
2022/11/03 00:04:30;;;;;;;10.13;2.50;;;11.70;99.90;;;;;;4753047;29;20051;-81
2022/11/03 00:06:56;;;;;;;11.00;2.97;;;11.70;99.90;;;;;;4772357;29;20050;-81
2022/11/03 00:09:23;;;;;;;12.85;2.78;;;11.70;99.90;;;;;;4769813;29;20494;-81
2022/11/03 00:11:50;;;;;;;7.68;2.35;;;11.70;99.90;;;;;;4800288;29;20068;-81
2022/11/03 00:14:16;;;;;;;11.57;2.35;;;11.60;99.90;;;;;;4770333;29;20088;-81
2022/11/03 00:16:42;;;;;;;13.38;2.45;;;11.60;99.90;;;;;;4802329;29;20116;-81
2022/11/03 00:19:09;;;;;;;10.07;2.38;;;11.60;99.90;;;;;;4767278;29;20385;-81
2022/11/03 00:21:35;;;;;;;12.43;2.50;;;11.60;99.90;;;;;;4770972;29;20070;-82
2022/11/03 00:24:01;;;;;;;10.50;2.60;;;11.60;99.90;;;;;;4801746;29;20066;-82
2022/11/03 00:26:29;;;;;;;12.30;2.63;;;11.60;99.90;;;;;;4771029;29;20077;-81
2022/11/03 00:28:59;;;;;;;10.65;2.38;;;11.50;99.90;;;;;;4799942;29;20469;-82
2022/11/03 00:31:36;;;;;;;11.48;2.78;;;11.50;99.90;;;;;;4768276;29;20066;-81
2022/11/03 00:34:03;;;;;;;7.85;2.58;;;11.50;99.90;;;;;;4780805;29;20058;-82
2022/11/03 00:36:40;;;;;;;9.48;2.53;;;11.50;99.90;;;;;;4799719;29;20042;-81
2022/11/03 00:39:06;;;;;;;13.40;2.55;;;11.50;99.90;;;;;;4786586;29;20053;-81
2022/11/03 00:41:32;;;;;;;12.02;2.88;;;11.40;99.90;;;;;;4767839;29;20054;-81
2022/11/03 00:43:58;;;;;;;9.65;2.53;;;11.40;99.90;;;;;;4785746;29;20146;-81
2022/11/03 00:46:24;;;;;;;11.70;2.35;;;11.40;99.90;;;;;;4785573;29;20082;-81
2022/11/03 00:48:51;;;;;;;10.85;2.60;;;11.40;99.90;;;;;;4801683;29;20054;-81
2022/11/03 00:51:24;;;;;;;7.20;2.00;;;11.40;99.90;;;;;;4771721;29;20133;-81
2022/11/03 00:53:52;;;;;;;12.93;2.58;;;11.40;99.90;;;;;;4795197;29;20417;-81
2022/11/03 00:56:30;;;;;;;12.23;3.00;;;11.40;99.90;;;;;;4800156;29;20416;-81
2022/11/03 00:58:58;;;;;;;11.70;2.67;;;11.40;99.90;;;;;;4800850;29;20054;-81
2022/11/03 01:01:30;;;;;;;14.85;2.60;;;11.40;99.90;;;;;;4799598;29;20130;-81
2022/11/03 01:06:50;;;;;;;9.23;2.35;;;11.40;99.90;;;;;;4796791;29;20050;-81
2022/11/03 01:09:27;;;;;;;9.85;2.20;;;11.40;99.90;;;;;;4783931;29;20523;-81
2022/11/03 01:12:00;;;;;;;8.82;2.90;;;11.40;99.90;;;;;;4785805;29;20093;-82
2022/11/03 01:14:38;;;;;;;9.15;2.20;;;11.30;99.90;;;;;;4809601;29;20053;-81
2022/11/03 01:17:10;;;;;;;10.65;2.25;;;11.40;99.90;;;;;;4783850;29;20129;-81
2022/11/03 01:19:35;;;;;;;9.50;2.65;;;11.30;99.90;;;;;;4785618;29;20058;-81
2022/11/03 01:22:01;;;;;;;9.25;2.55;;;11.40;99.90;;;;;;4790212;29;20150;-82
2022/11/03 01:24:27;;;;;;;11.63;2.45;;;11.40;99.90;;;;;;4796291;29;20050;-81
2022/11/03 01:26:53;;;;;;;10.65;2.63;;;11.40;99.90;;;;;;4787209;29;20079;-81
2022/11/03 01:29:20;;;;;;;7.47;2.38;;;11.80;99.90;;;;;;4814107;29;20058;-81
2022/11/03 01:31:46;;;;;;;10.73;2.38;;;11.40;99.90;;;;;;4799873;29;20527;-81
2022/11/03 01:34:17;;;;;;;9.02;2.80;;;11.40;99.90;;;;;;4785644;29;20083;-81
2022/11/03 01:36:44;;;;;;;10.15;2.67;;;11.40;99.90;;;;;;4797206;29;20062;-81
2022/11/03 01:39:11;;;;;;;7.05;2.45;;;11.40;99.90;;;;;;4769115;29;20057;-81
2022/11/03 01:41:37;;;;;;;11.38;2.65;;;11.40;99.90;;;;;;4784409;29;20133;-81
2022/11/03 01:44:06;;;;;;;9.27;2.00;;;11.40;99.90;;;;;;4809366;29;20130;-81
2022/11/03 01:46:38;;;;;;;9.30;2.38;;;11.40;99.90;;;;;;4779944;29;20047;-81
2022/11/03 01:49:13;;;;;;;9.70;2.40;;;11.40;99.90;;;;;;4801087;29;20138;-81
2022/11/03 01:51:42;;;;;;;12.02;2.83;;;11.40;99.90;;;;;;4795802;29;20061;-81
2022/11/03 01:54:13;;;;;;;8.20;2.40;;;11.40;99.90;;;;;;4784177;29;20189;-81
2022/11/03 01:56:45;;;;;;;10.68;2.60;;;11.40;99.90;;;;;;4781668;29;20061;-81
2022/11/03 01:59:13;;;;;;;10.77;2.42;;;11.40;99.90;;;;;;4798179;29;20123;-81
2022/11/03 02:01:39;;;;;;;8.20;2.63;;;11.40;99.90;;;;;;4810964;29;20078;-82
2022/11/03 02:04:16;;;;;;;11.15;2.65;;;11.50;99.90;;;;;;4782432;29;20425;-81
2022/11/03 02:06:42;;;;;;;10.27;2.40;;;11.50;99.90;;;;;;4784150;29;20050;-82
2022/11/03 02:09:09;;;;;;;7.90;2.55;;;11.50;99.90;;;;;;4769093;29;20060;-82
2022/11/03 02:14:20;;;;;;;10.13;2.70;;;11.60;99.90;;;;;;4793779;29;20156;-82
2022/11/03 02:16:51;;;;;;;8.52;2.40;;;11.60;99.90;;;;;;4781128;29;20074;-81
2022/11/03 02:19:29;;;;;;;10.20;2.63;;;11.60;99.90;;;;;;4784016;29;20163;-81
2022/11/03 02:22:13;;;;;;;10.70;2.60;;;11.60;99.90;;;;;;4784797;29;20062;-81
2022/11/03 02:24:50;;;;;;;9.93;2.78;;;11.60;99.90;;;;;;4798751;29;20603;-82
2022/11/03 02:27:17;;;;;;;11.43;2.35;;;11.60;99.90;;;;;;4797843;29;20056;-81
2022/11/03 02:29:43;;;;;;;12.60;3.80;;;11.60;99.90;;;;;;4798285;29;20130;-82
2022/11/03 02:32:25;;;;;;;9.70;2.92;;;11.60;99.90;;;;;;4765198;29;20058;-81
2022/11/03 02:35:29;;;;;;;12.23;3.00;;;11.70;99.90;;;;;;4794074;29;20151;-81
2022/11/03 02:37:59;;;;;;;10.93;2.45;;;11.60;99.90;;;;;;4768694;29;20121;-82
2022/11/03 02:40:51;;;;;;;11.93;2.90;;;11.70;99.90;;;;;;4781152;29;20058;-81
2022/11/03 02:43:18;;;;;;;11.77;2.72;;;11.80;99.90;;;;;;4795829;29;20145;-81
2022/11/03 02:45:46;;;;;;;12.55;2.58;;;11.80;99.90;;;;;;4784973;29;20075;-82
2022/11/03 02:48:14;;;;;;;7.93;2.17;;;11.80;99.90;;;;;;4799417;29;20065;-81
2022/11/03 02:50:41;;;;;;;13.85;3.38;;;11.80;99.90;;;;;;4803249;29;20072;-81
2022/11/03 02:53:12;;;;;;;9.50;2.60;;;11.80;99.90;;;;;;4790707;29;20074;-82
2022/11/03 02:55:45;;;;;;;12.50;2.55;;;11.80;99.90;;;;;;4784046;29;20054;-82
2022/11/03 02:58:13;;;;;;;12.52;2.35;;;11.80;99.90;;;;;;4813329;29;20051;-81
2022/11/03 03:00:47;;;;;;;7.90;2.17;;;11.80;99.90;;;;;;4809490;29;20043;-82
2022/11/03 03:03:28;;;;;;;8.05;2.22;;;11.80;99.90;;;;;;4781375;29;20051;-82
2022/11/03 03:06:01;;;;;;;10.52;2.25;;;11.80;99.90;;;;;;4797643;29;20137;-82
2022/11/03 03:08:28;;;;;;;10.55;2.33;;;11.80;99.90;;;;;;4795102;29;20054;-81
2022/11/03 03:10:56;;;;;;;7.20;2.22;;;11.80;99.90;;;;;;4783828;29;20077;-81
2022/11/03 03:13:23;;;;;;;6.30;2.55;;;12.10;99.90;;;;;;4766067;29;20090;-81
2022/11/03 03:16:02;;;;;;;9.43;2.35;;;11.70;99.90;;;;;;4768001;29;20727;-82
2022/11/03 03:18:43;;;;;;;8.38;2.50;;;11.80;99.90;;;;;;4811529;29;20151;-82
2022/11/03 03:21:15;;;;;;;5.72;2.00;;;11.80;99.90;;;;;;4795975;29;20062;-81
2022/11/03 03:23:54;;;;;;;10.60;2.45;;;11.80;99.90;;;;;;4784561;29;20302;-81
2022/11/03 03:26:38;;;;;;;9.15;2.60;;;11.80;99.90;;;;;;4800135;29;20050;-82
2022/11/03 03:29:14;;;;;;;11.23;2.45;;;11.80;99.90;;;;;;4785813;29;20405;-81
2022/11/03 03:31:46;;;;;;;17.45;2.92;;;11.80;99.90;;;;;;4784490;29;20119;-81
2022/11/03 03:34:15;;;;;;;10.63;2.67;;;11.80;99.90;;;;;;4781185;29;20076;-81
2022/11/03 03:36:44;;;;;;;11.18;2.10;;;11.80;99.90;;;;;;4788558;29;20491;-82
2022/11/03 03:39:12;;;;;;;8.85;2.55;;;11.80;99.90;;;;;;4789378;29;20050;-82
2022/11/03 03:41:39;;;;;;;8.57;2.65;;;11.80;99.90;;;;;;4787863;29;20054;-82
2022/11/03 03:44:08;;;;;;;8.55;2.63;;;11.80;99.90;;;;;;4800269;29;20112;-81
2022/11/03 03:46:56;;;;;;;7.85;2.03;;;11.80;99.90;;;;;;4786374;29;20507;-81
2022/11/03 03:49:22;;;;;;;11.52;2.20;;;11.80;99.90;;;;;;4785768;29;20053;-81
2022/11/03 03:51:49;;;;;;;11.20;3.10;;;11.80;99.90;;;;;;4786405;29;20042;-82
2022/11/03 03:54:14;;;;;;;9.32;2.47;;;11.80;99.90;;;;;;4798432;29;20642;-81
2022/11/03 03:57:03;;;;;;;13.68;2.45;;;11.70;99.90;;;;;;4781906;29;20046;-81
2022/11/03 03:59:30;;;;;;;9.57;2.55;;;11.40;99.90;;;;;;4784990;29;20050;-81
2022/11/03 04:01:56;;;;;;;10.20;3.33;;;11.60;99.90;;;;;;4783655;29;20170;-81
2022/11/03 04:04:21;;;;;;;8.27;2.45;;;11.60;99.90;;;;;;4786356;29;20069;-81
2022/11/03 04:06:47;;;;;;;9.43;2.13;;;11.60;99.90;;;;;;4799635;29;20050;-81
2022/11/03 04:09:13;;;;;;;11.85;2.35;;;11.60;99.90;;;;;;4771438;29;20055;-81
2022/11/03 04:22:56;;;;;;;8.82;2.63;;;11.40;99.90;;;;;;4806300;29;20165;-81
2022/11/03 04:25:22;;;;;;;9.90;2.10;;;11.30;99.90;;;;;;4795072;29;20118;-81
2022/11/03 04:27:51;;;;;;;8.88;2.30;;;11.30;99.90;;;;;;4782506;29;20133;-81
2022/11/03 04:30:23;;;;;;;8.95;2.20;;;11.30;99.90;;;;;;4783123;29;20047;-81
2022/11/03 04:32:50;;;;;;;10.68;2.78;;;11.30;99.90;;;;;;4796492;29;20157;-82
2022/11/03 04:35:18;;;;;;;7.93;2.40;;;11.20;99.90;;;;;;4784778;29;20055;-81
2022/11/03 04:37:44;;;;;;;8.23;2.40;;;11.20;99.90;;;;;;4780276;29;20509;-81
2022/11/03 04:40:15;;;;;;;10.52;2.35;;;11.20;99.90;;;;;;4786211;29;20059;-82
2022/11/03 04:42:42;;;;;;;11.30;2.38;;;11.20;99.90;;;;;;4798825;29;20043;-82
2022/11/03 04:45:29;;;;;;;6.78;2.08;;;11.20;99.90;;;;;;4798407;29;20467;-82
2022/11/03 04:47:57;;;;;;;11.50;2.40;;;11.20;99.90;;;;;;4798978;29;20050;-82
2022/11/03 04:50:23;;;;;;;8.02;2.50;;;11.20;99.90;;;;;;4769803;29;20132;-82
2022/11/03 04:52:54;;;;;;;5.75;2.08;;;11.20;99.90;;;;;;4769385;29;20506;-82
2022/11/03 04:55:20;;;;;;;8.15;2.30;;;11.20;99.90;;;;;;4782946;29;20051;-83
2022/11/03 04:57:47;;;;;;;9.18;2.08;;;11.10;99.90;;;;;;4798347;29;20516;-83
2022/11/03 05:00:17;;;;;;;7.30;1.90;;;11.10;99.90;;;;;;4791563;29;20065;-83
2022/11/03 05:02:46;;;;;;;12.10;2.92;;;11.10;99.90;;;;;;4783546;29;20058;-83
2022/11/03 05:05:24;;;;;;;10.88;2.38;;;11.10;99.90;;;;;;4774397;29;20063;-84
2022/11/03 05:07:52;;;;;;;10.30;2.60;;;11.20;99.90;;;;;;4797661;29;20050;-83
2022/11/03 05:10:22;;;;;;;7.60;2.03;;;11.20;99.90;;;;;;4788907;29;20047;-83
2022/11/03 05:12:49;;;;;;;13.82;2.22;;;11.20;99.90;;;;;;4785270;29;20714;-82
2022/11/03 05:15:28;;;;;;;12.80;2.70;;;11.20;99.90;;;;;;4768875;29;20138;-83
2022/11/03 05:17:55;;;;;;;7.75;2.00;;;11.20;99.90;;;;;;4780681;29;20266;-83
2022/11/03 05:20:34;;;;;;;10.07;2.30;;;11.20;99.90;;;;;;4784310;29;20065;-83
2022/11/03 05:23:00;;;;;;;10.18;2.80;;;11.30;99.90;;;;;;4783097;29;20069;-82
2022/11/03 05:25:44;;;;;;;7.15;2.10;;;11.30;99.90;;;;;;4795233;29;20523;-83
2022/11/03 05:28:48;;;;;;;10.50;2.50;;;11.30;99.90;;;;;;4778310;29;20057;-82
2022/11/03 05:31:20;;;;;;;10.40;2.40;;;11.30;99.90;;;;;;4733647;30;20480;-82
2022/11/03 05:33:48;;;;;;;7.38;2.20;;;11.30;99.90;;;;;;4776173;29;20142;-82
2022/11/03 05:36:19;;;;;;;8.90;2.13;;;11.30;99.90;;;;;;4775717;29;20101;-82
2022/11/03 05:38:44;;;;;;;7.78;2.50;;;11.30;99.90;;;;;;4798150;29;20506;-82
2022/11/03 05:41:20;;;;;;;6.85;2.08;;;11.30;99.90;;;;;;4781574;29;20059;-82
2022/11/03 05:43:57;;;;;;;;;;;11.30;99.90;;;;;;4796685;29;20067;-82
2022/11/03 05:46:26;;;;;;;;;;;11.30;99.90;;;;;;4798253;29;19925;-79
2022/11/03 05:48:52;;;;;;;11.85;3.38;;;11.30;99.90;;;;;;4783770;29;19925;-81
2022/11/03 05:51:49;;;;;;;12.05;2.85;;;11.30;99.90;;;;;;4796799;29;20054;-81
2022/11/03 05:54:23;;;;;;;12.02;2.47;;;11.30;99.90;;;;;;4768024;29;20067;-81
2022/11/03 05:56:49;;;;;;;9.40;2.50;;;11.40;99.90;;;;;;4808114;29;20145;-80
2022/11/03 05:59:21;;;;;;;9.32;2.58;;;11.30;99.90;;;;;;4792555;29;20105;-81
2022/11/03 06:01:48;;;;;;;7.57;2.70;;;11.40;99.90;;;;;;4796102;29;20055;-80
2022/11/03 06:04:19;;;;;;;10.50;2.20;;;11.40;99.90;;;;;;4767830;29;20043;-81
2022/11/03 06:06:52;;;;;;;10.63;2.17;;;11.40;99.90;;;;;;4792377;29;20115;-81
2022/11/03 06:09:25;;;;;;;13.45;3.10;;;11.40;99.90;;;;;;4797101;29;20055;-81
2022/11/03 06:11:53;;;;;;;10.38;2.33;;;11.40;99.90;;;;;;4807902;29;20047;-81
2022/11/03 06:14:21;;;;;;;7.70;2.20;;;11.40;99.90;;;;;;4779877;29;20142;-80
2022/11/03 06:16:51;;;;;;;7.95;2.30;;;11.50;99.90;;;;;;4785995;29;20051;-81
2022/11/03 06:19:30;;;;;;;7.03;2.25;;;11.50;99.90;;;;;;4791697;29;20130;-81
2022/11/03 06:22:11;;;;;;;9.43;2.75;;;11.50;99.90;;;;;;4775244;29;20101;-81
2022/11/03 06:24:36;;;;;;;6.60;2.10;;;11.50;99.90;;;;;;4794130;29;20409;-81
2022/11/03 06:27:02;;;;;;;8.27;2.10;;;11.50;99.90;;;;;;4787493;29;20053;-82
2022/11/03 06:29:31;;;;;;;7.40;2.13;;;11.50;99.90;;;;;;4782017;29;20058;-82
2022/11/03 06:31:57;;;;;;;7.35;2.50;;;11.50;99.90;;;;;;4796777;29;20054;-81
2022/11/03 06:34:41;;;;;;;9.73;2.40;;;11.50;99.90;;;;;;4785213;29;20047;-81
2022/11/03 06:37:26;;;;;;;8.23;2.35;;;11.50;99.90;;;;;;4780986;29;20059;-81
2022/11/03 06:40:07;;;;;;;8.27;2.15;;;11.50;99.90;;;;;;4806679;29;20548;-81
2022/11/03 06:42:33;;;;;;;12.38;2.42;;;11.40;99.90;;;;;;4792297;29;20048;-81
2022/11/03 06:45:01;;;;;;;10.40;3.08;;;11.40;99.90;;;;;;4794361;29;20057;-82
2022/11/03 06:47:28;;;;;;;9.27;2.55;;;11.40;99.90;;;;;;4780367;29;20505;-81
2022/11/03 06:49:58;;;;;;;6.90;2.30;;;11.40;99.90;;;;;;4795406;29;20059;-84
2022/11/03 06:52:24;;;;;;;8.30;2.45;;;11.30;99.90;;;;;;4795906;29;20054;-82
2022/11/03 06:55:10;;;;;;;9.73;2.38;;;11.40;99.90;;;;;;4780626;29;20051;-81
2022/11/03 06:57:41;;;;;;;8.10;2.13;;;11.30;99.90;;;;;;4782629;29;20058;-80
2022/11/03 07:00:16;;;;;;;10.05;2.58;;;11.30;99.90;;;;;;4815906;29;20061;-81
2022/11/03 07:02:52;;;;;;;7.80;2.20;;;11.30;99.90;;;;;;4798957;29;20078;-81
2022/11/03 07:05:24;;;;;;;9.65;2.10;;;11.30;99.90;;;;;;4779831;29;21393;-81
2022/11/03 07:07:59;;;;;;;7.13;2.15;;;11.40;99.90;;;;;;4796568;29;20047;-81
2022/11/03 07:10:27;;;;;;;10.00;2.08;;;11.40;99.90;;;;;;4782733;29;20066;-81
2022/11/03 07:12:55;;;;;;;10.18;2.50;;;11.40;99.90;;;;;;4798395;29;20082;-80
2022/11/03 07:15:31;;;;;;;7.30;2.20;;;11.50;99.90;;;;;;4780057;29;20174;-82
2022/11/03 07:17:59;;;;;;;8.38;2.30;;;11.50;99.90;;;;;;4811451;29;20863;-81
2022/11/03 07:20:26;;;;;;;8.27;2.42;;;11.50;99.90;;;;;;4787037;29;20173;-81
2022/11/03 07:22:52;;;;;;;7.50;2.08;;;11.50;99.90;;;;;;4788781;29;20051;-81
2022/11/03 07:25:20;;;;;;;5.47;2.10;;;11.50;99.90;;;;;;4786354;29;20192;-81
2022/11/03 07:27:56;;;;;;;9.32;2.60;;;11.60;99.90;;;;;;4783254;29;20054;-82
2022/11/03 07:30:28;;;;;;;7.05;1.80;;;11.60;99.90;;;;;;4799317;29;20149;-80
2022/11/03 07:33:01;;;;;;;7.88;2.53;;;11.60;99.90;;;;;;4792510;29;20063;-81
2022/11/03 07:35:33;;;;;;;9.40;3.22;;;11.60;99.90;;;;;;4794147;29;20051;-81
2022/11/03 07:38:10;;;;;;;9.30;2.22;;;11.70;99.90;;;;;;4784228;29;20130;-81
2022/11/03 07:40:37;;;;;;;8.55;2.10;;;11.70;99.90;;;;;;4784178;29;20159;-80
2022/11/03 07:43:18;;;;;;;8.90;2.20;;;11.70;99.90;;;;;;4780970;29;20646;-81
2022/11/03 07:45:50;;;;;;;12.73;2.42;;;11.70;99.90;;;;;;4796464;29;20134;-80
2022/11/03 07:48:19;;;;;;;7.03;2.65;;;11.80;99.90;;;;;;4810715;29;20094;-80
2022/11/03 07:50:50;;;;;;;5.55;2.20;;;11.80;99.90;;;;;;4796214;29;20062;-80
2022/11/03 07:53:42;;;;;;;8.15;2.10;;;11.80;99.90;;;;;;4799003;29;20055;-80
2022/11/03 07:56:28;;;;;;;8.38;2.28;;;11.80;99.90;;;;;;4782825;29;20249;-80
2022/11/03 07:59:10;;;;;;;9.65;2.22;;;11.90;99.90;;;;;;4796754;29;20054;-80
2022/11/03 08:01:45;;;;;;;7.25;2.05;;;11.90;99.90;;;;;;4779616;29;20065;-80
2022/11/03 08:04:19;;;;;;;8.02;2.70;;;11.90;99.90;;;;;;4782169;29;20123;-78
2022/11/03 08:06:45;;;;;;;7.10;1.92;;;12.00;99.90;;;;;;4782795;29;20054;-79
2022/11/03 08:09:11;;;;;;;4.95;2.10;;;12.00;99.90;;;;;;4764824;29;20051;-80
2022/11/03 08:11:37;;;;;;;8.10;2.20;;;12.00;99.90;;;;;;4783243;29;20107;-80
2022/11/03 08:14:03;;;;;;;8.00;2.13;;;12.00;99.90;;;;;;4782780;29;20898;-80
2022/11/03 08:16:28;;;;;;;5.95;2.28;;;12.10;99.90;;;;;;4783373;29;20663;-81
2022/11/03 08:18:54;;;;;;;8.88;2.30;;;11.90;99.90;;;;;;4807060;29;20497;-84
2022/11/03 08:21:20;;;;;;;6.20;2.10;;;12.20;99.90;;;;;;4771789;29;20078;-84
2022/11/03 08:23:46;;;;;;;7.22;2.22;;;12.20;99.90;;;;;;4782094;29;20854;-83
2022/11/03 08:26:11;;;;;;;9.27;2.40;;;12.40;99.90;;;;;;4779864;29;20059;-82
2022/11/03 08:28:37;;;;;;;8.48;2.17;;;12.50;99.90;;;;;;4767151;29;20553;-81
2022/11/03 08:31:04;;;;;;;7.45;2.35;;;12.60;99.90;;;;;;4797898;29;20051;-81
2022/11/03 08:33:31;;;;;;;6.80;2.10;;;12.70;99.90;;;;;;4753972;29;20135;-80
2022/11/03 08:35:58;;;;;;;8.43;2.17;;;12.80;99.90;;;;;;4797375;29;20472;-81
2022/11/03 08:38:24;;;;;;;8.85;2.40;;;12.80;99.90;;;;;;4792633;29;20084;-80
2022/11/03 08:40:49;;;;;;;6.43;2.30;;;12.90;99.90;;;;;;4783387;29;20502;-80
2022/11/03 08:43:15;;;;;;;7.72;2.33;;;12.80;99.90;;;;;;4779011;29;20352;-79
2022/11/03 08:45:41;;;;;;;5.95;2.03;;;12.90;99.90;;;;;;4775411;29;20747;-80
2022/11/03 08:48:07;;;;;;;8.98;2.10;;;12.80;99.90;;;;;;4799614;29;20058;-80
2022/11/03 08:50:32;;;;;;;8.13;2.30;;;12.90;99.90;;;;;;4786391;29;20084;-79
2022/11/03 08:52:58;;;;;;;7.63;2.53;;;12.90;99.90;;;;;;4768784;29;20061;-82
2022/11/03 08:55:24;;;;;;;7.75;2.17;;;12.90;99.90;;;;;;4780283;29;20055;-80
2022/11/03 08:57:49;;;;;;;7.10;2.22;;;12.80;99.90;;;;;;4795718;29;20047;-82
2022/11/03 09:00:16;;;;;;;10.52;2.83;;;12.80;99.90;;;;;;4796760;29;20071;-80
2022/11/03 09:02:45;;;;;;;7.78;2.22;;;12.80;99.90;;;;;;4791826;29;20082;-83
2022/11/03 09:05:11;;;;;;;8.02;2.33;;;12.80;99.90;;;;;;4811429;29;20683;-83
2022/11/03 09:07:40;;;;;;;11.23;2.45;;;12.80;99.90;;;;;;4795232;29;20067;-83
2022/11/03 09:10:08;;;;;;;8.15;2.05;;;12.80;99.90;;;;;;4781427;29;20081;-82
2022/11/03 09:12:35;;;;;;;7.75;2.35;;;12.80;99.90;;;;;;4806037;29;20062;-83
2022/11/03 09:15:02;;;;;;;7.70;2.20;;;12.80;99.90;;;;;;4780332;29;20077;-82
2022/11/03 09:17:28;;;;;;;8.63;2.88;;;12.70;99.90;;;;;;4797388;29;20097;-80
2022/11/03 09:19:53;;;;;;;8.63;2.72;;;12.80;99.90;;;;;;4764959;29;20126;-80
2022/11/03 09:22:20;;;;;;;6.95;2.08;;;12.80;99.90;;;;;;4797918;29;20192;-80
2022/11/03 09:24:46;;;;;;;8.65;3.03;;;12.70;99.90;;;;;;4793308;29;20055;-80
2022/11/03 09:27:12;;;;;;;8.10;2.33;;;12.70;99.90;;;;;;4797976;29;20051;-79
2022/11/03 09:29:37;;;;;;;8.27;2.60;;;12.70;99.90;;;;;;4783833;29;20183;-79
2022/11/03 09:32:03;;;;;;;8.68;2.70;;;12.70;99.90;;;;;;4780883;29;20051;-80
2022/11/03 09:34:29;;;;;;;9.80;2.67;;;12.70;99.90;;;;;;4782454;29;20086;-81
2022/11/03 09:36:55;;;;;;;6.53;2.13;;;12.80;99.90;;;;;;4792439;29;20046;-81
2022/11/03 09:39:21;;;;;;;12.13;2.85;;;12.80;99.90;;;;;;4767092;29;20054;-81
2022/11/03 09:41:46;;;;;;;8.38;2.88;;;12.80;99.90;;;;;;4783724;29;20058;-80
2022/11/03 09:44:12;;;;;;;6.38;2.28;;;12.80;99.90;;;;;;4768656;29;20062;-81
2022/11/03 09:46:38;;;;;;;8.18;2.30;;;12.80;99.90;;;;;;4782938;29;20062;-80
2022/11/03 09:49:05;;;;;;;6.45;1.95;;;12.80;99.90;;;;;;4767513;29;20092;-80
2022/11/03 09:51:31;;;;;;;9.27;2.58;;;12.90;99.90;;;;;;4766516;29;20051;-81
2022/11/03 09:54:02;;;;;;;6.57;2.22;;;12.90;99.90;;;;;;4793021;29;20085;-80
2022/11/03 09:56:36;;;;;;;8.02;2.40;;;12.90;99.90;;;;;;4796386;29;20063;-80
2022/11/03 09:59:14;;;;;;;9.90;2.45;;;13.00;99.90;;;;;;4794804;29;20055;-80
2022/11/03 10:01:40;;;;;;;7.05;2.30;;;13.00;99.90;;;;;;4778219;29;20620;-80
2022/11/03 10:04:10;;;;;;;7.40;2.40;;;13.00;99.90;;;;;;4794477;29;20078;-80
2022/11/03 10:06:35;;;;;;;10.57;2.88;;;13.10;99.90;;;;;;4778265;29;20051;-80
2022/11/03 10:09:01;;;;;;;8.75;2.60;;;13.10;99.90;;;;;;4780627;29;20065;-79
2022/11/03 10:11:27;;;;;;;7.53;2.72;;;13.20;99.90;;;;;;4780249;29;20562;-80
2022/11/03 10:13:55;;;;;;;7.22;2.40;;;13.20;99.90;;;;;;4772926;29;20161;-80
2022/11/03 10:16:23;;;;;;;10.57;2.80;;;13.20;99.90;;;;;;4780236;29;20050;-81
2022/11/03 10:18:49;;;;;;;7.45;2.90;;;13.30;99.90;;;;;;4791757;29;20171;-80
2022/11/03 10:21:18;;;;;;;8.02;2.40;;;13.30;99.90;;;;;;4793355;29;20618;-81
2022/11/03 10:23:44;;;;;;;8.93;2.60;;;13.40;99.90;;;;;;4793334;29;20150;-80
2022/11/03 10:26:17;;;;;;;6.97;2.65;;;13.40;99.90;;;;;;4763911;29;20142;-84
2022/11/03 10:29:07;;;;;;;7.57;2.63;;;13.50;99.90;;;;;;4794683;29;20131;-80
2022/11/03 10:31:38;;;;;;;7.20;2.60;;;13.50;99.90;;;;;;4779653;29;20141;-83
2022/11/03 10:34:22;;;;;;;6.15;2.75;;;13.50;99.90;;;;;;4777003;29;20078;-83
2022/11/03 10:36:48;;;;;;;8.23;2.38;;;13.60;99.90;;;;;;4779289;29;20198;-81
2022/11/03 10:39:28;;;;;;;9.40;2.60;;;13.60;99.90;;;;;;4794117;29;20106;-82
2022/11/03 10:41:58;;;;;;;6.63;2.65;;;13.60;99.90;;;;;;4792393;29;20059;-82
2022/11/03 10:44:27;;;;;;;7.82;3.08;;;13.60;99.90;;;;;;4794421;29;20055;-82
2022/11/03 10:47:01;;;;;;;7.20;2.05;;;13.60;99.90;;;;;;4778711;29;20058;-82
2022/11/03 10:49:32;;;;;;;8.35;2.45;;;13.60;99.90;;;;;;4780041;29;20524;-82
2022/11/03 10:52:15;;;;;;;8.07;2.88;;;13.60;99.90;;;;;;4795282;29;20153;-82
2022/11/03 10:54:40;;;;;;;8.85;2.80;;;13.40;99.90;;;;;;4793619;29;20137;-83
2022/11/03 10:57:06;;;;;;;7.80;2.42;;;13.70;99.90;;;;;;4766408;29;20137;-83
2022/11/03 10:59:36;;;;;;;8.98;2.45;;;13.70;99.90;;;;;;4780031;29;20046;-83
2022/11/03 11:02:09;;;;;;;6.88;2.20;;;13.90;99.90;;;;;;4791663;29;20145;-81
2022/11/03 11:04:35;;;;;;;9.40;2.17;;;14.10;99.90;;;;;;4776868;29;20051;-79
2022/11/03 11:07:01;;;;;;;10.30;2.88;;;14.30;99.90;;;;;;4778390;29;20070;-79
2022/11/03 11:09:27;;;;;;;9.52;2.50;;;14.40;99.90;;;;;;4806569;29;20333;-80
2022/11/03 11:12:00;;;;;;;10.38;2.60;;;14.50;99.90;;;;;;4774432;29;20074;-80
2022/11/03 11:14:26;;;;;;;6.72;2.13;;;14.60;99.90;;;;;;4790025;29;20436;-80
2022/11/03 11:17:02;;;;;;;7.45;2.20;;;14.60;99.90;;;;;;4790039;29;20055;-80
2022/11/03 11:19:29;;;;;;;7.40;2.53;;;14.50;99.90;;;;;;4776247;29;20051;-79
2022/11/03 11:21:54;;;;;;;8.55;2.30;;;14.50;99.90;;;;;;4778683;29;20062;-79
2022/11/03 11:24:42;;;;;;;8.80;2.50;;;14.40;99.90;;;;;;4806721;29;20065;-80
2022/11/03 11:27:36;;;;;;;6.85;2.20;;;14.30;99.90;;;;;;4795475;29;20073;-80
2022/11/03 11:30:04;;;;;;;6.70;2.50;;;14.30;99.90;;;;;;4779024;29;20054;-80
2022/11/03 11:32:59;;;;;;;8.88;3.00;;;14.30;99.90;;;;;;4777151;29;20377;-81
2022/11/03 11:35:25;;;;;;;9.18;2.63;;;14.20;99.90;;;;;;4791722;29;20070;-80
2022/11/03 11:37:51;;;;;;;5.75;2.10;;;14.20;99.90;;;;;;4793868;29;20054;-80
2022/11/03 11:40:23;;;;;;;5.43;1.92;;;14.20;99.90;;;;;;4780748;29;20099;-81
2022/11/03 11:43:01;;;;;;;5.97;2.00;;;14.20;99.90;;;;;;4792695;29;20106;-81
2022/11/03 11:46:04;;;;;;;10.18;3.15;;;14.30;99.90;;;;;;4807556;29;20050;-81
2022/11/03 11:48:31;;;;;;;5.72;2.08;;;14.20;99.90;;;;;;4778948;29;20133;-81
2022/11/03 11:50:57;;;;;;;7.53;2.40;;;14.20;99.90;;;;;;4770768;29;20106;-81
2022/11/03 11:53:25;;;;;;;5.82;1.75;;;14.20;99.90;;;;;;4793258;29;20055;-81
2022/11/03 11:55:56;;;;;;;7.03;2.35;;;14.20;99.90;;;;;;4793292;29;20058;-81
2022/11/03 11:58:49;;;;;;;6.63;2.17;;;14.20;99.90;;;;;;4782598;29;20066;-81
2022/11/03 12:01:31;;;;;;;6.03;2.28;;;14.20;99.90;;;;;;4772242;29;20606;-81
2022/11/03 12:04:20;;;;;;;10.20;2.30;;;14.20;99.90;;;;;;4796317;29;20054;-81
2022/11/03 12:06:45;;;;;;;7.47;2.47;;;14.20;99.90;;;;;;4780257;29;20062;-81
2022/11/03 12:09:11;;;;;;;7.28;2.42;;;14.20;99.90;;;;;;4764600;29;20612;-81
2022/11/03 12:11:57;;;;;;;8.63;2.20;;;14.20;99.90;;;;;;4806479;29;20059;-80
2022/11/03 12:14:31;;;;;;;7.43;2.55;;;14.20;99.90;;;;;;4806868;29;20043;-81
2022/11/03 12:17:17;;;;;;;7.60;2.63;;;14.20;99.90;;;;;;4780330;29;20062;-81
2022/11/03 12:19:48;;;;;;;9.68;2.40;;;14.20;99.90;;;;;;4793061;29;20063;-84
2022/11/03 12:22:23;;;;;;;7.68;2.33;;;14.20;99.90;;;;;;4791021;29;20058;-80
2022/11/03 12:24:56;;;;;;;5.50;2.17;;;14.20;99.90;;;;;;4795328;29;20062;-81
2022/11/03 12:27:24;;;;;;;4.85;2.00;;;14.20;99.90;;;;;;4777441;29;20058;-80
2022/11/03 12:29:52;;;;;;;7.68;2.13;;;14.20;99.90;;;;;;4797631;29;20156;-80
2022/11/03 12:32:18;;;;;;;7.43;2.10;;;14.20;99.90;;;;;;4808378;29;20055;-80
2022/11/03 12:34:44;;;;;;;5.28;1.90;;;14.20;99.90;;;;;;4796116;29;20138;-80
2022/11/03 12:37:10;;;;;;;8.00;2.33;;;14.20;99.90;;;;;;4793827;29;20054;-80
2022/11/03 12:39:36;;;;;;;9.35;2.30;;;14.20;99.90;;;;;;4782367;29;20046;-80
2022/11/03 12:42:02;;;;;;;8.40;2.03;;;14.20;99.90;;;;;;4796542;29;20054;-79
2022/11/03 12:44:28;;;;;;;8.30;2.45;;;14.20;99.90;;;;;;4782217;29;20083;-81
2022/11/03 12:46:53;;;;;;;8.63;1.90;;;14.20;99.90;;;;;;4766055;29;20524;-80
2022/11/03 12:49:19;;;;;;;7.55;1.98;;;14.20;99.90;;;;;;4783017;29;20096;-80
2022/11/03 12:51:45;;;;;;;7.20;2.38;;;14.20;99.90;;;;;;4779348;29;20055;-80
2022/11/03 12:54:10;;;;;;;7.25;1.80;;;14.20;99.90;;;;;;4766132;29;20050;-80
2022/11/03 12:56:36;;;;;;;7.65;2.00;;;14.10;99.90;;;;;;4782300;29;20444;-81
2022/11/03 12:59:02;;;;;;;4.95;2.03;;;14.10;99.90;;;;;;4793881;29;20203;-81
2022/11/03 13:01:27;;;;;;;7.15;2.40;;;14.10;99.90;;;;;;4764821;29;20177;-80
2022/11/03 13:03:53;;;;;;;5.47;1.58;;;14.10;99.90;;;;;;4751943;29;20051;-81
2022/11/03 13:06:19;;;;;;;6.03;2.10;;;14.10;99.90;;;;;;4779560;29;20050;-80
2022/11/03 13:08:45;;;;;;;6.07;2.05;;;14.00;99.90;;;;;;4790429;29;20069;-81
2022/11/03 13:13:55;;;;;;;5.60;2.05;;;14.00;99.90;;;;;;4781927;29;20504;-80
2022/11/03 13:16:22;;;;;;;6.70;2.20;;;14.00;99.90;;;;;;4794181;29;20496;-80
2022/11/03 13:18:48;;;;;;;4.72;1.88;;;14.00;99.90;;;;;;4792553;29;20489;-80
2022/11/03 13:21:14;;;;;;;5.00;1.80;;;14.00;99.90;;;;;;4751287;29;20493;-81
2022/11/03 13:23:40;;;;;;;6.43;2.05;;;14.00;99.90;;;;;;4789053;29;20050;-80